createdAt,value
2022-12-27T00:02:53.686Z,0.15
2022-12-27T00:06:57.041Z,0.10
2022-12-27T00:11:06.655Z,0.10
2022-12-27T00:15:10.754Z,0.10
2022-12-27T00:19:15.319Z,0.20
2022-12-27T00:23:18.587Z,0.10
2022-12-27T00:27:21.672Z,0.10
2022-12-27T00:31:26.325Z,0.30
2022-12-27T00:35:30.767Z,0.10
2022-12-27T00:39:34.145Z,0.22
2022-12-27T00:43:37.672Z,0.00
2022-12-27T00:47:41.006Z,0.00
2022-12-27T00:51:45.639Z,0.20
2022-12-27T00:55:48.974Z,0.10
2022-12-27T00:59:52.234Z,0.20
2022-12-27T01:03:55.690Z,0.20
2022-12-27T01:08:00.509Z,0.10
2022-12-27T01:12:03.524Z,0.20
2022-12-27T01:16:10.838Z,0.20
2022-12-27T01:20:14.087Z,0.17
2022-12-27T01:24:18.991Z,0.10
2022-12-27T01:28:22.072Z,0.10
2022-12-27T01:32:26.181Z,0.10
2022-12-27T01:36:31.020Z,0.30
2022-12-27T01:40:36.837Z,0.10
2022-12-27T01:44:52.031Z,0.10
2022-12-27T01:48:56.227Z,0.10
2022-12-27T01:53:06.969Z,0.20
2022-12-27T01:57:12.374Z,0.17
2022-12-27T02:01:19.102Z,0.10
2022-12-27T02:05:25.639Z,0.28
2022-12-27T02:09:39.974Z,0.20
2022-12-27T02:13:47.286Z,0.20
2022-12-27T02:17:50.659Z,0.10
2022-12-27T02:22:14.341Z,0.20
2022-12-27T02:26:40.815Z,0.30
2022-12-27T02:30:48.440Z,0.20
2022-12-27T02:35:01.041Z,0.60
2022-12-27T02:39:05.165Z,0.20
2022-12-27T02:43:26.067Z,0.30
2022-12-27T02:47:49.584Z,0.32
2022-12-27T02:52:26.459Z,0.30
2022-12-27T02:56:55.222Z,0.22
2022-12-27T03:01:27.716Z,0.30
2022-12-27T03:05:46.191Z,0.32
2022-12-27T03:10:21.678Z,0.68
2022-12-27T03:14:55.881Z,0.30
2022-12-27T03:19:08.144Z,0.20
2022-12-27T03:23:31.032Z,0.30
2022-12-27T03:32:01.851Z,0.40
2022-12-27T03:36:26.836Z,0.17
2022-12-27T03:40:39.651Z,0.40
2022-12-27T03:48:56.692Z,0.30
2022-12-27T03:53:07.982Z,0.30
2022-12-27T03:57:15.321Z,0.30
2022-12-27T04:01:18.771Z,0.28
2022-12-27T04:05:21.794Z,0.30
2022-12-27T04:09:42.380Z,0.40
2022-12-27T04:14:04.689Z,0.20
2022-12-27T04:18:25.166Z,0.50
2022-12-27T04:22:45.994Z,0.20
2022-12-27T04:27:06.281Z,0.30
2022-12-27T04:31:28.365Z,0.20
2022-12-27T04:35:31.516Z,0.27
2022-12-27T04:39:34.762Z,0.38
2022-12-27T04:43:55.106Z,0.40
2022-12-27T04:48:17.687Z,0.30
2022-12-27T04:52:56.116Z,0.45
2022-12-27T04:56:59.363Z,0.22
2022-12-27T05:01:21.857Z,0.35
2022-12-27T05:05:27.324Z,0.32
2022-12-27T05:09:48.002Z,0.22
2022-12-27T05:14:03.490Z,0.30
2022-12-27T05:18:06.932Z,0.50
2022-12-27T05:22:29.169Z,0.55
2022-12-27T05:26:33.365Z,0.30
2022-12-27T05:30:37.792Z,0.25
2022-12-27T05:34:41.045Z,0.35
2022-12-27T05:38:45.920Z,0.65
2022-12-27T05:42:49.254Z,0.50
2022-12-27T05:46:52.234Z,0.35
2022-12-27T05:50:55.476Z,0.40
2022-12-27T05:55:00.378Z,0.57
2022-12-27T05:59:03.651Z,0.60
2022-12-27T06:03:06.749Z,0.50
2022-12-27T06:07:12.372Z,0.50
2022-12-27T06:11:19.004Z,0.60
2022-12-27T06:15:22.126Z,0.55
2022-12-27T06:19:25.400Z,0.32
2022-12-27T06:23:28.619Z,0.50
2022-12-27T06:27:33.346Z,0.77
2022-12-27T06:31:36.645Z,0.45
2022-12-27T06:35:39.716Z,0.63
2022-12-27T06:39:42.985Z,0.77
2022-12-27T06:43:48.367Z,0.70
2022-12-27T06:47:51.397Z,0.50
2022-12-27T06:51:59.537Z,0.70
2022-12-27T06:56:05.672Z,0.70
2022-12-27T07:00:13.671Z,0.50
2022-12-27T07:04:17.055Z,0.65
2022-12-27T07:08:20.134Z,0.52
2022-12-27T07:12:23.409Z,0.63
2022-12-27T07:16:31.205Z,0.70
2022-12-27T07:20:34.630Z,0.65
2022-12-27T07:24:37.690Z,0.52
2022-12-27T07:28:41.084Z,0.50
2022-12-27T07:32:45.717Z,0.77
2022-12-27T07:36:49.375Z,0.47
2022-12-27T07:40:52.395Z,0.52
2022-12-27T07:44:55.679Z,0.77
2022-12-27T07:49:01.176Z,0.40
2022-12-27T07:53:04.439Z,0.68
2022-12-27T07:57:07.507Z,0.63
2022-12-27T08:01:12.023Z,0.90
2022-12-27T08:05:20.359Z,0.90
2022-12-27T08:09:30.338Z,0.75
2022-12-27T08:13:33.711Z,0.52
2022-12-27T08:17:36.960Z,1.20
2022-12-27T08:21:41.790Z,0.80
2022-12-27T08:25:49.072Z,1.13
2022-12-27T08:29:52.360Z,0.70
2022-12-27T08:33:58.852Z,0.57
2022-12-27T08:38:04.203Z,0.43
2022-12-27T08:42:07.407Z,0.90
2022-12-27T08:46:10.995Z,0.70
2022-12-27T08:50:14.300Z,0.32
2022-12-27T08:54:19.172Z,0.35
2022-12-27T08:58:22.229Z,1.00
2022-12-27T09:02:25.532Z,0.57
2022-12-27T09:06:29.082Z,0.30
2022-12-27T09:10:33.806Z,0.57
2022-12-27T09:14:36.998Z,1.02
2022-12-27T09:18:40.471Z,0.77
2022-12-27T09:22:43.639Z,0.60
2022-12-27T09:26:48.285Z,0.77
2022-12-27T09:30:51.535Z,0.77
2022-12-27T09:34:55.702Z,0.98
2022-12-27T09:39:00.018Z,0.40
2022-12-27T09:43:19.557Z,0.50
2022-12-27T09:47:28.554Z,0.40
2022-12-27T09:51:36.127Z,0.90
2022-12-27T09:55:44.553Z,0.52
2022-12-27T09:59:51.745Z,0.38
2022-12-27T10:03:55.606Z,0.60
2022-12-27T10:08:13.895Z,0.50
2022-12-27T10:12:32.065Z,1.05
2022-12-27T10:16:43.213Z,0.70
2022-12-27T10:21:03.530Z,0.68
2022-12-27T10:25:13.365Z,0.52
2022-12-27T10:29:22.221Z,0.38
2022-12-27T10:33:32.672Z,0.32
2022-12-27T10:37:35.738Z,0.30
2022-12-27T10:41:50.525Z,0.90
2022-12-27T10:45:54.703Z,0.63
2022-12-27T10:50:11.569Z,0.93
2022-12-27T11:04:59.344Z,0.28
2022-12-27T11:09:27.409Z,0.13
2022-12-27T11:13:30.413Z,0.60
2022-12-27T11:17:48.031Z,0.20
2022-12-27T11:21:52.687Z,0.60
2022-12-27T11:25:59.586Z,0.68
2022-12-27T11:30:03.975Z,0.65
2022-12-27T11:34:14.593Z,0.45
2022-12-27T11:38:25.620Z,0.43
2022-12-27T11:42:38.707Z,0.20
2022-12-27T11:46:46.673Z,0.15
2022-12-27T14:59:38.551Z,0.77
2022-12-27T15:04:05.058Z,0.70
2022-12-27T15:08:24.272Z,0.98
2022-12-27T15:12:37.117Z,0.50
2022-12-27T15:21:24.569Z,0.47
2022-12-27T15:25:44.669Z,0.55
2022-12-27T15:30:01.967Z,0.70
2022-12-27T15:34:24.389Z,0.60
2022-12-27T15:38:42.517Z,0.88
2022-12-27T15:42:55.425Z,0.80
2022-12-27T15:47:37.497Z,0.77
2022-12-27T15:51:50.529Z,0.68
2022-12-27T15:56:12.589Z,0.50
2022-12-27T16:00:33.318Z,1.00
2022-12-27T16:04:48.418Z,1.60
2022-12-27T16:09:24.860Z,1.02
2022-12-27T16:13:41.866Z,0.80
2022-12-27T16:17:56.904Z,0.63
2022-12-27T16:22:00.450Z,1.38
2022-12-27T16:26:07.753Z,1.40
2022-12-27T16:30:12.168Z,1.20
2022-12-27T16:34:25.926Z,1.08
2022-12-27T16:38:32.318Z,1.13
2022-12-27T16:43:10.872Z,1.10
2022-12-27T16:47:50.004Z,0.90
2022-12-27T16:52:20.071Z,0.70
2022-12-27T16:56:48.286Z,1.08
2022-12-27T17:00:52.978Z,0.77
2022-12-27T17:05:00.667Z,0.70
2022-12-27T17:09:43.172Z,0.93
2022-12-27T17:13:51.278Z,1.20
2022-12-27T17:17:58.618Z,1.40
2022-12-27T17:22:05.133Z,1.67
2022-12-27T17:26:23.758Z,1.67
2022-12-27T17:30:38.488Z,1.00
2022-12-27T17:34:55.127Z,0.85
2022-12-27T17:39:22.960Z,0.68
2022-12-27T17:43:54.206Z,1.73
2022-12-27T17:48:10.331Z,1.40
2022-12-27T17:52:35.895Z,1.17
2022-12-27T17:57:04.888Z,1.15
2022-12-27T18:01:08.341Z,1.13
2022-12-27T18:05:16.232Z,1.45
2022-12-27T18:09:34.000Z,1.73
2022-12-27T18:13:41.261Z,1.50
2022-12-27T18:17:48.074Z,1.25
2022-12-27T18:22:01.382Z,1.15
2022-12-27T18:26:13.504Z,1.38
2022-12-27T18:30:17.060Z,1.17
2022-12-27T18:34:26.947Z,1.30
2022-12-27T18:38:36.395Z,2.08
2022-12-27T18:42:45.108Z,2.17
2022-12-27T18:46:51.400Z,1.45
2022-12-27T18:50:58.401Z,1.52
2022-12-27T18:55:19.321Z,1.45
2022-12-27T18:59:26.575Z,1.58
2022-12-27T19:03:35.227Z,1.70
2022-12-27T19:07:42.179Z,1.40
2022-12-27T19:11:54.478Z,1.23
2022-12-27T19:16:02.525Z,1.15
2022-12-27T19:20:10.037Z,1.13
2022-12-27T19:24:32.959Z,2.55
2022-12-27T19:32:42.393Z,1.92
2022-12-27T19:36:47.299Z,1.98
2022-12-27T19:40:59.536Z,1.63
2022-12-27T19:45:10.859Z,1.75
2022-12-27T19:53:39.740Z,2.72
2022-12-27T19:57:44.498Z,2.00
2022-12-27T20:01:49.813Z,1.30
2022-12-27T20:06:13.587Z,2.03
2022-12-27T20:10:18.737Z,1.23
2022-12-27T20:14:21.903Z,1.38
2022-12-27T20:18:28.181Z,1.48
2022-12-27T20:22:31.272Z,0.88
2022-12-27T20:26:34.763Z,1.70
2022-12-27T20:30:39.737Z,1.00
2022-12-27T20:34:44.526Z,1.83
2022-12-27T20:38:47.731Z,1.83
2022-12-27T20:42:51.293Z,1.83
2022-12-27T20:46:54.447Z,2.35
2022-12-27T20:50:59.318Z,1.23
2022-12-27T20:55:02.500Z,1.95
2022-12-27T20:59:06.020Z,1.95
2022-12-27T21:03:11.149Z,2.28
2022-12-27T21:07:16.164Z,2.17
2022-12-27T21:11:21.445Z,2.55
2022-12-27T21:15:24.828Z,1.80
2022-12-27T21:19:27.896Z,2.85
2022-12-27T21:23:34.769Z,1.73
2022-12-27T21:27:37.989Z,2.35
2022-12-27T21:31:41.436Z,1.83
2022-12-27T21:35:44.868Z,2.05
2022-12-27T21:39:49.612Z,1.65
2022-12-27T21:43:56.122Z,1.58
2022-12-27T21:47:59.443Z,1.55
2022-12-27T21:52:02.599Z,1.52
2022-12-27T21:56:08.189Z,2.33
2022-12-27T22:00:13.068Z,1.30
2022-12-27T22:04:16.273Z,1.65
2022-12-27T22:08:19.331Z,2.85
2022-12-27T22:12:24.436Z,1.50
2022-12-27T22:16:29.348Z,2.60
2022-12-27T22:20:32.665Z,2.33
2022-12-27T22:24:35.802Z,1.95
2022-12-27T22:28:40.777Z,2.28
2022-12-27T22:32:43.845Z,2.05
2022-12-27T22:36:47.579Z,2.25
2022-12-27T22:40:51.016Z,2.33
2022-12-27T22:44:55.975Z,2.17
2022-12-27T22:49:02.683Z,2.00
2022-12-27T22:53:06.163Z,2.33
2022-12-27T22:57:09.176Z,2.55
2022-12-27T23:01:15.152Z,2.47
2022-12-27T23:05:18.521Z,3.00
2022-12-27T23:14:43.475Z,2.33
2022-12-27T23:18:48.127Z,2.65
2022-12-27T23:22:51.429Z,1.98
2022-12-27T23:26:54.577Z,1.90
2022-12-27T23:30:58.091Z,1.70
2022-12-27T23:35:02.757Z,1.95
2022-12-27T23:39:06.772Z,2.50
2022-12-27T23:43:42.183Z,3.15
2022-12-27T23:47:33.158Z,2.40
2022-12-27T23:55:45.024Z,3.17
2022-12-27T23:59:49.513Z,2.53
